createdAt,value
2023-04-20T00:00:21.836Z,50.93
2023-04-20T00:02:23.568Z,51.36
2023-04-20T00:04:25.282Z,51.47
2023-04-20T00:06:29.698Z,51.35
2023-04-20T00:08:31.437Z,51.14
2023-04-20T00:10:32.949Z,51.57
2023-04-20T00:12:34.373Z,51.62
2023-04-20T00:14:35.874Z,51.79
2023-04-20T00:16:40.203Z,51.66
2023-04-20T00:18:41.804Z,51.65
2023-04-20T00:20:43.386Z,51.96
2023-04-20T00:22:45.144Z,51.81
2023-04-20T00:24:46.743Z,52.05
2023-04-20T00:26:48.185Z,51.84
2023-04-20T00:28:51.157Z,52.01
2023-04-20T00:30:52.776Z,52.12
2023-04-20T00:32:54.303Z,52.16
2023-04-20T00:34:58.826Z,52.15
2023-04-20T00:37:00.443Z,52.20
2023-04-20T00:39:02.423Z,52.17
2023-04-20T00:41:05.321Z,52.25
2023-04-20T00:43:16.480Z,52.20
2023-04-20T00:45:18.079Z,52.13
2023-04-20T00:47:19.687Z,52.63
2023-04-20T00:49:21.384Z,52.28
2023-04-20T00:51:23.180Z,52.35
2023-04-20T00:53:24.768Z,52.16
2023-04-20T00:55:28.076Z,52.18
2023-04-20T00:57:31.086Z,52.05
2023-04-20T00:59:36.193Z,52.08
2023-04-20T01:01:37.910Z,52.46
2023-04-20T01:03:41.174Z,52.29
2023-04-20T01:05:42.933Z,52.32
2023-04-20T01:07:47.378Z,52.27
2023-04-20T01:09:50.775Z,52.31
2023-04-20T01:11:52.358Z,52.54
2023-04-20T01:13:55.144Z,52.53
2023-04-20T01:16:00.338Z,52.63
2023-04-20T01:18:05.457Z,52.61
2023-04-20T01:20:11.557Z,52.76
2023-04-20T01:22:21.086Z,52.53
2023-04-20T01:24:24.738Z,52.80
2023-04-20T01:26:27.178Z,52.79
2023-04-20T01:28:28.628Z,52.71
2023-04-20T01:30:30.347Z,52.71
2023-04-20T01:32:32.179Z,52.89
2023-04-20T01:34:34.162Z,52.71
2023-04-20T01:36:35.899Z,52.63
2023-04-20T01:38:37.653Z,52.55
2023-04-20T01:40:41.672Z,52.73
2023-04-20T01:42:43.173Z,52.75
2023-04-20T01:44:44.652Z,52.99
2023-04-20T01:46:46.253Z,52.82
2023-04-20T01:48:47.977Z,52.79
2023-04-20T01:50:53.150Z,52.72
2023-04-20T01:52:54.796Z,52.52
2023-04-20T01:54:58.722Z,52.64
2023-04-20T01:57:00.740Z,52.90
2023-04-20T01:59:02.307Z,52.83
2023-04-20T02:01:04.195Z,52.71
2023-04-20T02:03:05.918Z,52.69
2023-04-20T02:05:08.415Z,52.61
2023-04-20T02:07:10.033Z,52.67
2023-04-20T02:09:16.315Z,52.81
2023-04-20T02:11:18.073Z,52.78
2023-04-20T02:13:22.410Z,52.75
2023-04-20T02:15:23.983Z,52.58
2023-04-20T02:17:26.358Z,52.54
2023-04-20T02:19:27.839Z,52.75
2023-04-20T02:21:30.832Z,52.88
2023-04-20T02:23:33.700Z,52.91
2023-04-20T02:25:35.421Z,52.84
2023-04-20T02:27:38.745Z,52.78
2023-04-20T02:29:40.412Z,52.68
2023-04-20T02:31:44.581Z,52.81
2023-04-20T02:33:47.863Z,52.81
2023-04-20T02:35:49.385Z,52.74
2023-04-20T02:37:51.709Z,52.87
2023-04-20T02:39:53.149Z,52.70
2023-04-20T02:41:54.669Z,52.97
2023-04-20T02:43:57.393Z,53.18
2023-04-20T02:45:59.319Z,53.02
2023-04-20T02:48:00.969Z,53.21
2023-04-20T02:50:06.478Z,53.10
2023-04-20T02:52:19.445Z,53.26
2023-04-20T02:54:23.565Z,52.96
2023-04-20T02:56:26.312Z,53.36
2023-04-20T02:58:31.298Z,52.98
2023-04-20T03:00:44.331Z,53.08
2023-04-20T03:02:46.800Z,53.27
2023-04-20T03:04:48.834Z,53.28
2023-04-20T03:06:54.507Z,53.20
2023-04-20T03:09:10.081Z,53.30
2023-04-20T03:11:50.628Z,53.17
2023-04-20T03:14:12.424Z,53.35
2023-04-20T03:16:14.080Z,53.43
2023-04-20T03:18:19.404Z,53.48
2023-04-20T03:20:20.908Z,53.47
2023-04-20T03:22:22.623Z,53.34
2023-04-20T03:24:28.328Z,53.25
2023-04-20T03:26:32.745Z,53.44
2023-04-20T03:28:50.959Z,53.26
2023-04-20T03:30:59.371Z,53.30
2023-04-20T03:33:02.491Z,53.32
2023-04-20T03:35:06.191Z,53.34
2023-04-20T03:37:07.653Z,53.26
2023-04-20T03:39:09.779Z,53.13
2023-04-20T03:41:14.800Z,53.22
2023-04-20T03:43:16.308Z,53.36
2023-04-20T03:45:18.056Z,53.15
2023-04-20T03:47:19.578Z,53.23
2023-04-20T03:49:30.786Z,53.10
2023-04-20T03:51:32.420Z,53.28
2023-04-20T03:53:34.168Z,53.37
2023-04-20T03:55:36.133Z,53.37
2023-04-20T03:57:41.039Z,53.31
2023-04-20T03:59:44.086Z,53.29
2023-04-20T04:01:50.552Z,53.29
2023-04-20T04:03:52.816Z,53.33
2023-04-20T04:05:56.991Z,53.44
2023-04-20T04:07:58.894Z,53.41
2023-04-20T04:10:00.586Z,53.38
2023-04-20T04:12:04.965Z,53.38
2023-04-20T04:14:07.531Z,53.38
2023-04-20T04:16:11.486Z,53.33
2023-04-20T04:18:15.516Z,53.29
2023-04-20T04:20:17.582Z,53.17
2023-04-20T04:22:22.388Z,53.26
2023-04-20T04:24:46.951Z,53.10
2023-04-20T04:26:51.890Z,53.33
2023-04-20T04:28:56.894Z,53.19
2023-04-20T04:31:06.191Z,53.48
2023-04-20T04:33:10.248Z,53.15
2023-04-20T04:35:14.359Z,53.32
2023-04-20T04:37:19.717Z,53.34
2023-04-20T04:39:27.100Z,53.14
2023-04-20T04:41:40.686Z,53.13
2023-04-20T04:43:53.487Z,53.45
2023-04-20T04:46:08.075Z,53.38
2023-04-20T04:48:12.416Z,53.47
2023-04-20T04:50:14.285Z,53.39
2023-04-20T04:52:15.992Z,53.59
2023-04-20T04:54:17.701Z,53.48
2023-04-20T04:56:20.564Z,53.58
2023-04-20T04:58:22.141Z,53.66
2023-04-20T05:00:26.951Z,53.55
2023-04-20T05:02:28.804Z,53.43
2023-04-20T05:04:30.961Z,53.61
2023-04-20T05:06:32.695Z,53.52
2023-04-20T05:08:34.860Z,53.48
2023-04-20T05:10:36.321Z,53.58
2023-04-20T05:12:38.544Z,53.71
2023-04-20T05:14:42.923Z,53.58
2023-04-20T05:16:44.389Z,53.70
2023-04-20T05:18:45.931Z,53.62
2023-04-20T05:20:47.679Z,53.88
2023-04-20T05:22:49.150Z,53.71
2023-04-20T05:24:58.099Z,53.45
2023-04-20T05:26:59.636Z,53.49
2023-04-20T05:29:01.659Z,53.99
2023-04-20T05:31:08.009Z,53.98
2023-04-20T05:33:09.511Z,53.87
2023-04-20T05:35:11.067Z,53.97
2023-04-20T05:37:15.763Z,54.33
2023-04-20T05:39:18.263Z,54.20
2023-04-20T05:41:19.826Z,53.82
2023-04-20T05:43:21.334Z,54.01
2023-04-20T05:45:23.330Z,54.14
2023-04-20T05:47:24.952Z,54.24
2023-04-20T05:49:29.973Z,54.07
2023-04-20T05:51:34.368Z,54.32
2023-04-20T05:53:35.878Z,54.48
2023-04-20T05:55:37.536Z,54.53
2023-04-20T05:57:42.652Z,54.53
2023-04-20T05:59:44.779Z,54.66
2023-04-20T06:01:46.242Z,54.67
2023-04-20T06:03:49.376Z,54.73
2023-04-20T06:05:51.654Z,54.66
2023-04-20T06:07:53.376Z,54.74
2023-04-20T06:09:54.965Z,54.56
2023-04-20T06:11:57.303Z,54.48
2023-04-20T06:13:58.946Z,54.52
2023-04-20T06:16:01.410Z,54.38
2023-04-20T06:18:03.526Z,54.23
2023-04-20T06:20:06.924Z,54.14
2023-04-20T06:22:13.184Z,53.87
2023-04-20T06:24:15.928Z,53.88
2023-04-20T06:26:20.877Z,53.76
2023-04-20T06:28:29.358Z,53.75
2023-04-20T06:30:31.091Z,53.90
2023-04-20T06:32:32.680Z,53.76
2023-04-20T06:34:34.239Z,53.67
2023-04-20T06:36:35.941Z,53.50
2023-04-20T06:38:37.443Z,53.28
2023-04-20T06:40:38.986Z,53.40
2023-04-20T06:42:40.947Z,52.77
2023-04-20T06:44:45.708Z,52.99
2023-04-20T06:46:47.492Z,52.68
2023-04-20T06:48:53.012Z,52.53
2023-04-20T06:50:54.455Z,52.27
2023-04-20T06:52:55.913Z,52.49
2023-04-20T06:54:59.413Z,52.54
2023-04-20T06:57:01.372Z,52.53
2023-04-20T06:59:03.063Z,52.70
2023-04-20T07:01:12.113Z,52.83
2023-04-20T07:03:19.021Z,52.48
2023-04-20T07:05:21.256Z,52.49
2023-04-20T07:07:25.602Z,52.03
2023-04-20T07:09:27.402Z,51.63
2023-04-20T07:11:28.908Z,51.17
2023-04-20T07:13:33.434Z,51.00
2023-04-20T07:15:35.591Z,50.55
2023-04-20T07:17:40.241Z,51.01
2023-04-20T07:19:41.798Z,51.00
2023-04-20T07:21:43.984Z,50.67
2023-04-20T07:23:45.501Z,50.89
2023-04-20T07:25:47.486Z,50.67
2023-04-20T07:27:50.115Z,50.58
2023-04-20T07:29:51.568Z,50.68
2023-04-20T07:31:53.215Z,50.38
2023-04-20T07:33:54.754Z,50.03
2023-04-20T07:35:56.226Z,49.62
2023-04-20T07:37:57.774Z,49.20
2023-04-20T07:39:59.362Z,49.01
2023-04-20T07:42:04.120Z,49.11
2023-04-20T07:44:05.798Z,49.30
2023-04-20T07:46:07.908Z,49.34
2023-04-20T07:48:09.646Z,49.24
2023-04-20T07:50:11.349Z,49.47
2023-04-20T07:52:19.288Z,48.96
2023-04-20T07:54:20.916Z,49.10
2023-04-20T07:56:22.476Z,48.65
2023-04-20T07:58:24.062Z,48.33
2023-04-20T08:00:28.186Z,48.29
2023-04-20T08:02:32.185Z,47.84
2023-04-20T08:04:35.941Z,47.68
2023-04-20T08:06:37.765Z,47.15
2023-04-20T08:08:39.403Z,47.19
2023-04-20T08:10:41.111Z,47.26
2023-04-20T08:12:42.681Z,46.92
2023-04-20T08:14:44.087Z,46.76
2023-04-20T08:16:45.540Z,46.65
2023-04-20T08:18:47.180Z,45.99
2023-04-20T08:20:48.826Z,45.70
2023-04-20T08:22:50.962Z,45.44
2023-04-20T08:24:52.868Z,44.90
2023-04-20T08:26:54.291Z,44.79
2023-04-20T08:28:56.208Z,44.57
2023-04-20T08:30:57.816Z,43.81
2023-04-20T08:32:59.328Z,43.87
2023-04-20T08:35:00.880Z,43.35
2023-04-20T08:37:02.577Z,43.27
2023-04-20T08:39:11.998Z,43.03
2023-04-20T08:41:13.729Z,43.17
2023-04-20T08:43:15.256Z,42.90
2023-04-20T08:45:19.832Z,42.70
2023-04-20T08:47:21.407Z,43.19
2023-04-20T08:49:23.336Z,43.24
2023-04-20T08:51:24.775Z,43.26
2023-04-20T08:53:26.209Z,43.03
2023-04-20T08:55:27.905Z,43.27
2023-04-20T08:57:29.412Z,43.06
2023-04-20T08:59:31.488Z,42.83
2023-04-20T09:01:36.194Z,42.84
2023-04-20T09:03:40.908Z,42.86
2023-04-20T09:05:44.628Z,43.42
2023-04-20T09:07:52.886Z,43.58
2023-04-20T09:09:56.116Z,43.35
2023-04-20T09:12:07.096Z,43.48
2023-04-20T09:14:13.800Z,43.76
2023-04-20T09:16:15.605Z,43.93
2023-04-20T09:18:20.174Z,43.83
2023-04-20T09:20:34.813Z,43.94
2023-04-20T09:22:39.641Z,44.17
2023-04-20T09:24:43.799Z,44.16
2023-04-20T09:26:45.274Z,43.53
2023-04-20T09:28:47.324Z,43.85
2023-04-20T09:30:51.515Z,43.67
2023-04-20T09:33:05.946Z,42.79
2023-04-20T09:35:08.530Z,42.91
2023-04-20T09:37:10.976Z,42.73
2023-04-20T09:39:42.339Z,41.21
2023-04-20T09:41:44.549Z,41.14
2023-04-20T09:43:46.277Z,40.06
2023-04-20T09:45:49.108Z,39.58
2023-04-20T09:47:52.532Z,39.72
2023-04-20T09:49:54.716Z,38.90
2023-04-20T09:52:01.609Z,38.65
2023-04-20T09:54:05.056Z,38.14
2023-04-20T09:56:07.022Z,38.60
2023-04-20T09:58:08.583Z,38.25
2023-04-20T10:00:10.991Z,37.90
2023-04-20T10:02:13.656Z,38.14
2023-04-20T10:04:17.129Z,38.40
2023-04-20T10:06:24.256Z,38.47
2023-04-20T10:08:25.713Z,38.95
2023-04-20T10:10:27.522Z,38.30
2023-04-20T10:12:29.113Z,38.28
2023-04-20T10:14:31.285Z,38.91
2023-04-20T10:16:32.794Z,39.58
2023-04-20T10:18:34.421Z,39.78
2023-04-20T10:20:36.405Z,39.32
2023-04-20T10:22:39.153Z,39.82
2023-04-20T10:24:41.006Z,39.90
2023-04-20T10:26:45.216Z,39.69
2023-04-20T10:28:46.856Z,40.06
2023-04-20T10:30:53.885Z,39.66
2023-04-20T10:33:12.746Z,39.50
2023-04-20T10:35:17.424Z,40.08
2023-04-20T10:37:18.962Z,39.66
2023-04-20T10:39:22.260Z,39.28
2023-04-20T10:41:24.891Z,39.45
2023-04-20T10:43:26.688Z,39.41
2023-04-20T10:45:41.452Z,39.55
2023-04-20T10:47:45.277Z,39.90
2023-04-20T10:49:47.156Z,39.91
2023-04-20T10:51:50.687Z,39.92
2023-04-20T10:54:06.281Z,40.15
2023-04-20T10:56:08.010Z,40.57
2023-04-20T10:58:09.780Z,40.56
2023-04-20T11:00:18.741Z,40.69
2023-04-20T11:02:21.470Z,41.30
2023-04-20T11:04:32.820Z,41.45
2023-04-20T11:06:35.212Z,41.77
2023-04-20T11:08:41.800Z,41.84
2023-04-20T11:10:43.595Z,41.92
2023-04-20T11:12:45.526Z,41.94
2023-04-20T11:15:00.299Z,42.31
2023-04-20T11:17:01.987Z,42.07
2023-04-20T11:19:04.951Z,42.16
2023-04-20T11:21:06.663Z,42.15
2023-04-20T11:23:08.173Z,41.92
2023-04-20T11:25:11.025Z,41.89
2023-04-20T11:27:21.427Z,41.58
2023-04-20T11:29:39.652Z,41.43
2023-04-20T11:31:41.381Z,41.59
2023-04-20T11:33:43.023Z,41.35
2023-04-20T11:35:44.659Z,41.29
2023-04-20T11:37:48.102Z,41.57
2023-04-20T11:40:09.684Z,41.93
2023-04-20T11:42:11.388Z,42.25
2023-04-20T11:44:15.090Z,42.34
2023-04-20T11:46:20.695Z,42.52
2023-04-20T11:48:22.678Z,42.59
2023-04-20T11:50:27.796Z,42.45
2023-04-20T11:52:29.366Z,42.63
2023-04-20T11:54:35.150Z,42.36
2023-04-20T11:56:37.281Z,42.11
2023-04-20T11:58:41.803Z,41.93
2023-04-20T12:00:43.364Z,41.90
2023-04-20T12:02:48.005Z,42.14
2023-04-20T12:04:49.662Z,42.01
2023-04-20T12:06:54.069Z,42.17
2023-04-20T12:08:56.436Z,42.38
2023-04-20T12:10:58.747Z,42.55
2023-04-20T12:13:03.628Z,42.43
2023-04-20T12:15:05.863Z,42.42
2023-04-20T12:17:07.271Z,42.39
2023-04-20T12:19:09.288Z,42.23
2023-04-20T12:21:10.958Z,42.34
2023-04-20T12:23:12.982Z,42.64
2023-04-20T12:25:14.490Z,42.82
2023-04-20T12:27:16.323Z,42.84
2023-04-20T12:29:20.582Z,42.84
2023-04-20T12:31:26.355Z,42.77
2023-04-20T12:33:28.203Z,42.86
2023-04-20T12:35:29.984Z,43.08
2023-04-20T12:37:32.120Z,43.18
2023-04-20T12:39:33.600Z,43.12
2023-04-20T12:41:40.380Z,43.10
2023-04-20T12:43:41.802Z,43.16
2023-04-20T12:45:46.400Z,42.93
2023-04-20T12:47:49.075Z,42.65
2023-04-20T12:49:53.715Z,42.59
2023-04-20T12:51:57.566Z,42.76
2023-04-20T12:53:59.055Z,43.06
2023-04-20T12:56:01.436Z,43.13
2023-04-20T12:58:05.181Z,43.32
2023-04-20T13:00:08.000Z,43.52
2023-04-20T13:02:12.642Z,43.75
2023-04-20T13:04:16.142Z,43.96
2023-04-20T13:06:17.967Z,44.07
2023-04-20T13:08:19.949Z,44.20
2023-04-20T13:10:21.597Z,44.28
2023-04-20T13:12:23.258Z,44.50
2023-04-20T13:14:26.139Z,44.40
2023-04-20T13:16:28.630Z,44.21
2023-04-20T13:18:35.332Z,44.06
2023-04-20T13:20:37.066Z,44.15
2023-04-20T13:22:50.440Z,44.13
2023-04-20T13:24:58.470Z,44.38
2023-04-20T13:27:00.111Z,44.57
2023-04-20T13:29:01.626Z,44.66
2023-04-20T13:31:03.455Z,44.98
2023-04-20T13:33:06.511Z,44.81
2023-04-20T13:35:08.409Z,44.77
2023-04-20T13:37:09.875Z,44.87
2023-04-20T13:39:14.969Z,44.94
2023-04-20T13:41:16.463Z,44.94
2023-04-20T13:43:19.470Z,45.02
2023-04-20T13:45:26.256Z,44.99
2023-04-20T13:47:28.351Z,44.94
2023-04-20T13:49:29.868Z,44.91
2023-04-20T13:51:31.431Z,45.05
2023-04-20T13:53:33.507Z,44.71
2023-04-20T13:55:36.475Z,44.88
2023-04-20T13:57:38.149Z,44.84
2023-04-20T13:59:39.625Z,45.01
2023-04-20T14:01:41.338Z,44.62
2023-04-20T14:03:43.466Z,44.91
2023-04-20T14:05:45.864Z,44.73
2023-04-20T14:07:47.406Z,44.65
2023-04-20T14:09:53.782Z,44.77
2023-04-20T14:11:57.084Z,44.71
2023-04-20T14:14:01.048Z,44.58
2023-04-20T14:16:15.775Z,44.43
2023-04-20T14:18:17.361Z,44.61
2023-04-20T14:20:18.873Z,44.97
2023-04-20T14:22:20.317Z,45.13
2023-04-20T14:24:21.762Z,45.16
2023-04-20T14:26:23.363Z,45.07
2023-04-20T14:28:24.839Z,45.23
2023-04-20T14:30:31.848Z,45.03
2023-04-20T14:32:36.441Z,44.90
2023-04-20T14:34:38.174Z,44.97
2023-04-20T14:36:39.689Z,45.08
2023-04-20T14:38:41.136Z,44.93
2023-04-20T14:40:42.662Z,45.07
2023-04-20T14:42:45.435Z,44.97
2023-04-20T14:44:48.841Z,45.27
2023-04-20T14:46:59.179Z,45.39
2023-04-20T14:49:00.688Z,45.40
2023-04-20T14:51:02.221Z,45.40
2023-04-20T14:53:03.695Z,45.32
2023-04-20T14:55:06.127Z,45.50
2023-04-20T14:57:16.481Z,45.15
2023-04-20T14:59:17.988Z,44.95
2023-04-20T15:01:19.607Z,45.19
2023-04-20T15:03:21.388Z,45.22
2023-04-20T15:05:26.086Z,45.29
2023-04-20T15:07:28.478Z,45.03
2023-04-20T15:09:30.098Z,45.13
2023-04-20T15:11:34.599Z,45.23
2023-04-20T15:13:38.129Z,45.29
2023-04-20T15:15:48.165Z,45.52
2023-04-20T15:17:53.203Z,45.34
2023-04-20T15:19:54.761Z,45.48
2023-04-20T15:21:56.477Z,45.42
2023-04-20T15:23:58.215Z,45.59
2023-04-20T15:25:59.688Z,45.59
2023-04-20T15:28:01.220Z,45.63
2023-04-20T15:30:04.070Z,45.46
2023-04-20T15:32:05.789Z,45.38
2023-04-20T15:34:07.917Z,45.44
2023-04-20T15:36:09.500Z,45.62
2023-04-20T15:38:11.037Z,45.30
2023-04-20T15:40:12.790Z,45.66
2023-04-20T15:42:16.485Z,45.55
2023-04-20T15:44:18.115Z,45.39
2023-04-20T15:46:23.391Z,45.47
2023-04-20T15:48:25.197Z,45.54
2023-04-20T15:50:38.606Z,45.50
2023-04-20T15:52:40.235Z,45.46
2023-04-20T15:54:41.880Z,45.67
2023-04-20T15:56:43.422Z,45.67
2023-04-20T15:58:46.174Z,45.66
2023-04-20T16:00:47.812Z,45.68
2023-04-20T16:02:51.019Z,45.59
2023-04-20T16:04:55.891Z,45.73
2023-04-20T16:06:57.680Z,45.64
2023-04-20T16:08:59.151Z,45.56
2023-04-20T16:11:00.833Z,45.60
2023-04-20T16:13:03.566Z,45.49
2023-04-20T16:15:06.172Z,45.47
2023-04-20T16:17:07.796Z,45.74
2023-04-20T16:19:09.354Z,45.67
2023-04-20T16:21:11.114Z,45.86
2023-04-20T16:23:13.686Z,45.51
2023-04-20T16:25:22.563Z,45.70
2023-04-20T16:27:24.255Z,45.61
2023-04-20T16:29:28.807Z,45.54
2023-04-20T16:31:35.655Z,45.58
2023-04-20T16:33:37.306Z,45.47
2023-04-20T16:35:41.643Z,45.42
2023-04-20T16:37:43.228Z,45.76
2023-04-20T16:39:47.111Z,45.66
2023-04-20T16:41:48.584Z,45.53
2023-04-20T16:43:52.472Z,45.56
2023-04-20T16:45:53.970Z,45.70
2023-04-20T16:47:59.951Z,45.41
2023-04-20T16:50:01.605Z,45.37
2023-04-20T16:52:03.132Z,45.70
2023-04-20T16:54:04.659Z,45.50
2023-04-20T16:56:06.440Z,45.62
2023-04-20T16:58:09.007Z,45.56
2023-04-20T17:00:11.044Z,45.73
2023-04-20T17:02:12.605Z,45.72
2023-04-20T17:04:14.305Z,45.54
2023-04-20T17:06:15.808Z,45.77
2023-04-20T17:08:17.404Z,45.35
2023-04-20T17:10:19.142Z,45.22
2023-04-20T17:12:20.595Z,44.62
2023-04-20T17:14:22.034Z,44.64
2023-04-20T17:16:26.915Z,44.49
2023-04-20T17:18:28.620Z,44.31
2023-04-20T17:20:30.121Z,44.39
2023-04-20T17:22:31.812Z,44.07
2023-04-20T17:24:33.265Z,43.98
2023-04-20T17:26:36.184Z,43.75
2023-04-20T17:28:37.641Z,43.60
2023-04-20T17:30:41.024Z,43.63
2023-04-20T17:32:42.549Z,43.68
2023-04-20T17:34:48.569Z,43.59
2023-04-20T17:36:50.330Z,43.47
2023-04-20T17:38:51.807Z,43.42
2023-04-20T17:40:53.495Z,43.47
2023-04-20T17:42:55.163Z,43.41
2023-04-20T17:44:59.443Z,43.35
2023-04-20T17:47:01.535Z,43.41
2023-04-20T17:49:03.176Z,43.39
2023-04-20T17:51:04.682Z,43.61
2023-04-20T17:53:09.793Z,43.35
2023-04-20T17:55:13.687Z,43.45
2023-04-20T17:57:15.295Z,43.39
2023-04-20T17:59:16.860Z,43.52
2023-04-20T18:01:18.337Z,43.29
2023-04-20T18:03:20.463Z,43.38
2023-04-20T18:05:22.095Z,43.45
2023-04-20T18:07:23.710Z,43.43
2023-04-20T18:09:25.386Z,43.48
2023-04-20T18:11:27.360Z,43.22
2023-04-20T18:13:28.914Z,43.19
2023-04-20T18:15:30.463Z,43.41
2023-04-20T18:17:32.272Z,43.44
2023-04-20T18:19:33.780Z,43.37
2023-04-20T18:21:35.600Z,43.44
2023-04-20T18:23:37.280Z,43.56
2023-04-20T18:25:45.752Z,43.78
2023-04-20T18:27:49.601Z,43.83
2023-04-20T18:29:53.004Z,43.92
2023-04-20T18:31:56.163Z,43.88
2023-04-20T18:33:58.012Z,43.90
2023-04-20T18:35:59.801Z,44.17
2023-04-20T18:38:01.320Z,44.31
2023-04-20T18:40:04.136Z,44.42
2023-04-20T18:42:05.861Z,44.25
2023-04-20T18:44:07.817Z,44.35
2023-04-20T18:46:09.307Z,44.39
2023-04-20T18:48:11.075Z,44.12
2023-04-20T18:50:12.680Z,44.31
2023-04-20T18:52:14.145Z,44.25
2023-04-20T18:54:15.759Z,44.31
2023-04-20T18:56:17.376Z,44.33
2023-04-20T18:58:19.122Z,44.33
2023-04-20T19:00:20.813Z,44.25
2023-04-20T19:02:23.080Z,44.38
2023-04-20T19:04:24.766Z,44.30
2023-04-20T19:06:27.984Z,44.12
2023-04-20T19:08:34.936Z,44.08
2023-04-20T19:10:36.437Z,44.42
2023-04-20T19:12:38.572Z,44.64
2023-04-20T19:14:40.201Z,44.95
2023-04-20T19:16:41.751Z,45.27
2023-04-20T19:18:44.203Z,45.32
2023-04-20T19:20:47.707Z,45.65
2023-04-20T19:22:49.378Z,45.60
2023-04-20T19:24:51.036Z,45.64
2023-04-20T19:26:55.757Z,45.53
2023-04-20T19:28:59.326Z,45.68
2023-04-20T19:31:00.853Z,45.75
2023-04-20T19:33:04.966Z,45.72
2023-04-20T19:35:06.821Z,45.92
2023-04-20T19:37:12.495Z,45.76
2023-04-20T19:39:14.193Z,45.92
2023-04-20T19:41:15.691Z,45.91
2023-04-20T19:43:17.193Z,45.85
2023-04-20T19:45:18.992Z,45.81
2023-04-20T19:47:23.009Z,45.76
2023-04-20T19:49:24.494Z,45.70
2023-04-20T19:51:29.534Z,45.68
2023-04-20T19:53:31.761Z,45.69
2023-04-20T19:55:33.488Z,45.70
2023-04-20T19:57:35.237Z,45.71
2023-04-20T19:59:39.060Z,45.69
2023-04-20T20:01:40.600Z,45.83
2023-04-20T20:03:43.087Z,45.71
2023-04-20T20:05:45.041Z,45.75
2023-04-20T20:07:46.747Z,45.90
2023-04-20T20:09:48.466Z,45.90
2023-04-20T20:11:50.301Z,46.00
2023-04-20T20:13:52.241Z,46.13
2023-04-20T20:15:53.775Z,46.31
2023-04-20T20:17:59.572Z,46.20
2023-04-20T20:20:01.871Z,46.25
2023-04-20T20:22:03.662Z,46.23
2023-04-20T20:24:05.559Z,46.22
2023-04-20T20:26:07.129Z,46.29
2023-04-20T20:28:08.756Z,46.36
2023-04-20T20:30:11.184Z,46.33
2023-04-20T20:32:12.690Z,46.36
2023-04-20T20:34:16.922Z,46.54
2023-04-20T20:36:18.934Z,46.75
2023-04-20T20:38:20.943Z,46.67
2023-04-20T20:40:22.493Z,46.64
2023-04-20T20:42:25.642Z,46.69
2023-04-20T20:44:28.029Z,46.71
2023-04-20T20:46:31.567Z,46.84
2023-04-20T20:48:33.151Z,46.83
2023-04-20T20:50:34.765Z,47.05
2023-04-20T20:52:36.452Z,46.95
2023-04-20T20:54:37.973Z,47.12
2023-04-20T20:56:39.540Z,47.29
2023-04-20T20:58:44.151Z,47.36
2023-04-20T21:00:47.133Z,47.39
2023-04-20T21:02:49.061Z,47.54
2023-04-20T21:04:51.324Z,47.39
2023-04-20T21:06:52.890Z,47.62
2023-04-20T21:08:54.751Z,47.68
2023-04-20T21:10:56.537Z,47.75
2023-04-20T21:12:58.023Z,47.86
2023-04-20T21:14:59.556Z,48.02
2023-04-20T21:17:01.194Z,48.14
2023-04-20T21:19:02.806Z,47.98
2023-04-20T21:21:04.624Z,47.98
2023-04-20T21:23:06.190Z,48.00
2023-04-20T21:25:08.552Z,48.14
2023-04-20T21:27:10.259Z,48.22
2023-04-20T21:29:11.761Z,48.22
2023-04-20T21:31:13.195Z,48.08
2023-04-20T21:33:17.157Z,48.16
2023-04-20T21:35:24.550Z,48.24
2023-04-20T21:37:26.013Z,48.20
2023-04-20T21:39:27.516Z,48.22
2023-04-20T21:41:29.771Z,48.22
2023-04-20T21:43:31.249Z,48.34
2023-04-20T21:45:32.848Z,48.27
2023-04-20T21:47:34.381Z,48.21
2023-04-20T21:49:36.051Z,48.36
2023-04-20T21:51:37.699Z,48.29
2023-04-20T21:53:39.709Z,48.40
2023-04-20T21:55:43.809Z,48.33
2023-04-20T21:57:45.329Z,48.29
2023-04-20T21:59:46.808Z,48.31
2023-04-20T22:01:48.923Z,48.38
2023-04-20T22:03:53.331Z,48.39
2023-04-20T22:05:55.932Z,48.43
2023-04-20T22:07:58.023Z,48.24
2023-04-20T22:10:00.630Z,48.31
2023-04-20T22:12:06.632Z,48.41
2023-04-20T22:14:08.540Z,48.32
2023-04-20T22:16:10.019Z,48.20
2023-04-20T22:18:12.875Z,48.32
2023-04-20T22:20:16.683Z,48.30
2023-04-20T22:22:18.215Z,48.41
2023-04-20T22:24:25.560Z,48.51
2023-04-20T22:26:29.721Z,48.45
2023-04-20T22:28:31.398Z,48.39
2023-04-20T22:30:33.045Z,48.64
2023-04-20T22:32:36.724Z,48.59
2023-04-20T22:34:38.324Z,48.60
2023-04-20T22:36:39.885Z,48.43
2023-04-20T22:38:41.435Z,48.62
2023-04-20T22:40:43.026Z,48.69
2023-04-20T22:42:44.661Z,48.69
2023-04-20T22:44:46.152Z,48.60
2023-04-20T22:46:50.048Z,48.56
2023-04-20T22:48:59.185Z,48.64
2023-04-20T22:51:02.847Z,48.67
2023-04-20T22:53:04.857Z,48.73
2023-04-20T22:55:08.416Z,48.62
2023-04-20T22:57:09.900Z,48.75
2023-04-20T22:59:11.366Z,48.74
2023-04-20T23:01:12.834Z,48.87
2023-04-20T23:03:14.461Z,48.65
2023-04-20T23:05:20.474Z,48.78
2023-04-20T23:07:22.176Z,48.74
2023-04-20T23:09:24.196Z,48.82
2023-04-20T23:11:38.565Z,48.75
2023-04-20T23:13:41.348Z,48.75
2023-04-20T23:15:43.355Z,48.91
2023-04-20T23:17:44.949Z,48.81
2023-04-20T23:19:47.304Z,48.84
2023-04-20T23:21:48.841Z,48.89
2023-04-20T23:23:50.366Z,48.83
2023-04-20T23:25:52.362Z,48.74
2023-04-20T23:27:53.834Z,48.65
2023-04-20T23:29:57.946Z,48.90
2023-04-20T23:32:02.893Z,49.04
2023-04-20T23:34:04.785Z,48.91
2023-04-20T23:36:06.607Z,48.78
2023-04-20T23:38:10.682Z,48.90
2023-04-20T23:40:12.950Z,48.93
2023-04-20T23:42:17.073Z,48.89
2023-04-20T23:44:18.622Z,48.92
2023-04-20T23:46:20.262Z,49.01
2023-04-20T23:48:21.715Z,48.87
2023-04-20T23:50:23.239Z,48.86
2023-04-20T23:52:26.581Z,48.92
2023-04-20T23:54:36.414Z,49.01
2023-04-20T23:56:38.005Z,48.84
2023-04-20T23:58:39.532Z,48.92
